Aline, Oklahoma
Current Conditions -  °F | °C
As of 6:10 PM on Sunday 23 Nov 2014 (Local Time) from KAVK Reporting Station
Overcast Overcast  
Wind Chill:   Ceiling: 11000
Heat Index:   Visibility: 10mi
Dew Point:   Wind: 12mph
Humidity: 62%   Direction: 340°NNW
Pressure: 29.67"   Gusts: 21mph
Location:  36.51°N, 98.45°W
Report Text: KAVK 240010Z AUTO 34010G18KT 10SM SCT070 OVC110 08/01 A2967 RMK AO2
Loading
Personal Weather Stations






























Interactive Weather Map New forecast layout! Learn more

10-Day Weather Forecast

Advertisements
Track Severe Weather on mobile